Time;durP1;ratioP1;P1;durP2;ratioP2;P2;SDS_P1;SDS_P2;PMS_P1;PMS_P2;Temp;Humidity;BMP_temperature;BMP_pressure;BME280_temperature;BME280_humidity;BME280_pressure;Samples;Min_cycle;Max_cycle;Signal;HPM_P1;HPM_P2
2023/10/23 00:02:19;;;;;;;2.33;1.48;;;;;;;10.22;99.41;101373.72;4973292;28;96848;-28
2023/10/23 00:04:45;;;;;;;3.58;1.27;;;;;;;10.18;99.36;101378.44;4973110;28;97525;-27
2023/10/23 00:07:10;;;;;;;1.92;1.33;;;;;;;10.20;99.54;101381.97;4972801;28;97758;-28
2023/10/23 00:09:35;;;;;;;1.40;1.08;;;;;;;10.10;99.49;101377.06;4972623;28;96582;-27
2023/10/23 00:12:01;;;;;;;2.10;1.30;;;;;;;10.16;99.27;101383.06;4973094;28;96764;-28
2023/10/23 00:14:26;;;;;;;1.35;1.15;;;;;;;10.07;99.16;101377.25;4972959;28;97938;-28
2023/10/23 00:16:52;;;;;;;2.83;1.27;;;;;;;10.08;99.56;101387.09;4973023;28;97562;-27
2023/10/23 00:19:18;;;;;;;1.60;1.02;;;;;;;10.08;99.83;101390.72;4972869;28;96716;-28
2023/10/23 00:21:44;;;;;;;4.13;1.02;;;;;;;10.01;99.50;101381.16;4972432;28;96835;-28
2023/10/23 00:24:10;;;;;;;2.10;1.30;;;;;;;9.98;99.12;101384.00;4972735;28;97971;-28
2023/10/23 00:26:35;;;;;;;2.28;1.17;;;;;;;9.98;98.92;101384.00;4971618;28;100826;-27
2023/10/23 00:29:01;;;;;;;1.25;0.90;;;;;;;10.00;98.91;101393.78;4972834;28;96533;-28
2023/10/23 00:31:27;;;;;;;1.55;1.27;;;;;;;9.94;98.96;101387.81;4972483;28;96537;-29
2023/10/23 00:33:53;;;;;;;1.83;1.48;;;;;;;9.95;98.76;101393.13;4970612;28;100885;-28
2023/10/23 00:36:18;;;;;;;1.98;1.40;;;;;;;9.90;98.81;101387.09;4972426;28;97773;-28
2023/10/23 00:38:43;;;;;;;2.35;1.23;;;;;;;9.91;98.99;101387.97;4972427;28;96505;-28
2023/10/23 00:41:09;;;;;;;1.58;1.23;;;;;;;9.86;99.33;101390.03;4972757;28;96816;-27
2023/10/23 00:43:34;;;;;;;1.83;1.23;;;;;;;9.83;99.15;101387.47;4972414;28;102353;-28
2023/10/23 00:46:01;;;;;;;3.13;1.40;;;;;;;9.80;99.34;101393.91;4971744;28;98299;-28
2023/10/23 00:48:27;;;;;;;4.05;1.00;;;;;;;9.82;99.35;101399.22;4971237;28;96636;-28
2023/10/23 00:50:58;;;;;;;1.70;1.10;;;;;;;9.79;99.21;101397.56;4971728;28;96820;-31
2023/10/23 00:53:26;;;;;;;3.80;1.25;;;;;;;9.73;99.36;101390.63;4970757;28;100921;-28
2023/10/23 00:55:53;;;;;;;2.63;1.30;;;;;;;9.73;99.51;101400.59;4970974;28;101226;-28
2023/10/23 00:58:19;;;;;;;1.25;0.77;;;;;;;9.74;99.62;101407.75;4970582;28;97103;-28
2023/10/23 01:00:47;;;;;;;2.13;1.45;;;;;;;9.70;99.29;101400.72;4971078;28;97139;-28
2023/10/23 01:03:12;;;;;;;2.28;1.30;;;;;;;9.73;99.33;101406.88;4970900;28;100782;-28
2023/10/23 01:05:38;;;;;;;1.23;1.13;;;;;;;9.69;99.27;101399.84;4972096;28;97918;-27
2023/10/23 01:08:04;;;;;;;1.63;1.35;;;;;;;9.65;99.31;101402.78;4972415;28;96536;-28
2023/10/23 01:10:29;;;;;;;1.58;1.25;;;;;;;9.62;99.07;101401.09;4970896;28;96723;-28
2023/10/23 01:12:56;;;;;;;1.35;1.08;;;;;;;9.63;99.04;101408.28;4971900;28;99187;-28
2023/10/23 01:15:21;;;;;;;2.38;1.38;;;;;;;9.62;99.21;101416.44;4970942;28;101076;-27
2023/10/23 01:17:48;;;;;;;1.90;1.30;;;;;;;9.57;99.59;101416.69;4972034;28;96650;-29
2023/10/23 01:20:14;;;;;;;1.73;1.20;;;;;;;9.59;99.40;101412.06;4971837;28;96834;-28
2023/10/23 01:22:40;;;;;;;4.75;1.60;;;;;;;9.58;99.26;101413.00;4973570;28;100380;-28
2023/10/23 01:25:15;;;;;;;1.40;1.20;;;;;;;9.55;99.26;101416.72;4974161;28;99288;-27
2023/10/23 01:27:42;;;;;;;3.60;1.50;;;;;;;9.54;99.49;101423.09;4974243;28;96793;-29
2023/10/23 01:30:08;;;;;;;3.50;1.65;;;;;;;9.52;99.62;101422.31;4973978;28;96907;-27
2023/10/23 01:32:34;;;;;;;3.42;2.20;;;;;;;9.48;99.36;101411.69;4973770;28;100801;-28
2023/10/23 01:35:00;;;;;;;1.73;1.33;;;;;;;9.44;99.19;101404.69;4975168;28;99220;-27
2023/10/23 01:37:25;;;;;;;2.05;1.40;;;;;;;9.41;99.08;101410.25;4975496;28;96657;-29
2023/10/23 01:39:50;;;;;;;1.42;1.20;;;;;;;9.44;99.18;101402.88;4975824;28;96789;-28
2023/10/23 01:42:15;;;;;;;1.65;1.10;;;;;;;9.42;99.14;101406.59;4974977;28;99473;-28
2023/10/23 01:44:41;;;;;;;1.67;1.30;;;;;;;9.39;99.30;101396.81;4975150;28;97377;-28
2023/10/23 01:47:06;;;;;;;2.33;1.23;;;;;;;9.32;99.38;101385.41;4974184;28;96678;-28
2023/10/23 01:49:31;;;;;;;2.75;1.60;;;;;;;9.35;99.19;101398.78;4975344;28;96775;-27
2023/10/23 01:51:57;;;;;;;1.48;1.08;;;;;;;9.33;99.14;101386.28;4974861;28;99417;-28
2023/10/23 01:54:22;;;;;;;1.23;0.90;;;;;;;9.32;99.43;101396.22;4974924;28;102674;-28
2023/10/23 01:56:47;;;;;;;1.92;1.48;;;;;;;9.28;99.58;101388.34;4975520;28;96524;-28
2023/10/23 01:59:13;;;;;;;2.97;1.40;;;;;;;9.28;99.49;101396.44;4974810;28;101456;-28
2023/10/23 02:01:39;;;;;;;2.00;1.33;;;;;;;9.30;99.61;101398.13;4974788;28;97933;-28
2023/10/23 02:04:05;;;;;;;2.97;1.88;;;;;;;9.27;99.74;101394.66;4975095;28;98760;-27
2023/10/23 02:06:31;;;;;;;3.85;2.13;;;;;;;9.27;100.00;101406.38;4973552;28;96515;-28
2023/10/23 02:08:56;;;;;;;3.10;2.05;;;;;;;9.31;100.00;101404.41;4974719;28;96743;-28
2023/10/23 02:11:22;;;;;;;1.77;1.30;;;;;;;9.29;99.93;101407.16;4974452;28;97346;-28
2023/10/23 02:13:47;;;;;;;2.35;1.48;;;;;;;9.26;99.45;101407.31;4974946;28;99134;-28
2023/10/23 02:16:12;;;;;;;2.67;1.52;;;;;;;9.23;99.85;101409.31;4974701;28;96470;-28
2023/10/23 02:18:37;;;;;;;2.05;1.45;;;;;;;9.26;99.53;101411.84;4974963;28;96717;-28
2023/10/23 02:21:03;;;;;;;2.47;1.63;;;;;;;9.23;99.40;101421.00;4974566;28;99375;-28
2023/10/23 02:23:30;;;;;;;5.22;1.27;;;;;;;9.18;99.22;101422.16;4974371;28;99140;-28
2023/10/23 02:25:55;;;;;;;1.75;1.35;;;;;;;9.19;99.24;101419.38;4973575;28;96640;-28
2023/10/23 02:28:21;;;;;;;4.32;1.80;;;;;;;9.15;99.44;101417.75;4975173;28;96817;-29
2023/10/23 02:30:46;;;;;;;2.88;1.98;;;;;;;9.13;99.36;101408.88;4974294;28;97836;-27
2023/10/23 02:33:11;;;;;;;3.05;1.77;;;;;;;9.19;99.23;101424.78;4973412;28;100189;-28
2023/10/23 02:35:37;;;;;;;2.40;1.63;;;;;;;9.16;99.51;101421.34;4974056;28;96601;-27
2023/10/23 02:38:02;;;;;;;3.53;1.83;;;;;;;9.13;99.46;101422.38;4974637;28;96776;-28
2023/10/23 02:40:28;;;;;;;4.88;2.25;;;;;;;9.07;99.55;101411.84;4974498;28;97839;-28
2023/10/23 02:42:53;;;;;;;2.97;1.50;;;;;;;9.09;99.56;101418.06;4974252;28;97616;-28
2023/10/23 02:45:18;;;;;;;1.52;1.17;;;;;;;9.02;100.00;101422.84;4974052;28;96982;-28
2023/10/23 02:47:44;;;;;;;2.15;1.50;;;;;;;9.03;99.94;101432.69;4974116;28;96836;-28
2023/10/23 02:50:09;;;;;;;3.33;1.60;;;;;;;9.03;99.79;101431.81;4974473;28;97355;-28
2023/10/23 02:52:35;;;;;;;5.80;1.40;;;;;;;8.97;99.99;101434.84;4974606;28;97863;-27
2023/10/23 02:55:00;;;;;;;2.72;1.67;;;;;;;8.96;99.99;101433.06;4974169;28;96562;-29
2023/10/23 02:57:25;;;;;;;2.03;1.48;;;;;;;9.02;100.00;101438.19;4974345;28;96841;-28
2023/10/23 02:59:51;;;;;;;2.13;1.45;;;;;;;9.00;99.90;101437.38;4973535;28;97455;-28
2023/10/23 03:02:19;;;;;;;2.15;1.52;;;;;;;9.02;99.67;101438.19;4973795;28;97935;-28
2023/10/23 03:04:44;;;;;;;2.55;1.70;;;;;;;9.09;100.00;101445.94;4972534;28;96617;-28
2023/10/23 03:07:10;;;;;;;2.40;1.73;;;;;;;9.14;100.00;101441.19;4974201;28;96774;-28
2023/10/23 03:09:36;;;;;;;3.92;2.33;;;;;;;9.22;100.00;101448.06;4973763;28;97939;-28
2023/10/23 03:12:02;;;;;;;4.95;2.13;;;;;;;9.27;100.00;101462.25;4972327;28;101070;-28
2023/10/23 03:14:27;;;;;;;3.30;2.20;;;;;;;9.30;100.00;101460.31;4973757;28;96512;-28
2023/10/23 03:16:53;;;;;;;3.33;2.10;;;;;;;9.32;100.00;101455.69;4973743;28;100768;-28
2023/10/23 03:19:19;;;;;;;2.78;1.63;;;;;;;9.30;100.00;101451.31;4973521;28;102553;-28
2023/10/23 03:21:45;;;;;;;2.72;1.88;;;;;;;9.32;100.00;101458.41;4973368;28;99733;-29
2023/10/23 03:24:10;;;;;;;4.20;2.85;;;;;;;9.31;100.00;101453.06;4973315;28;96591;-28
2023/10/23 03:26:36;;;;;;;3.15;2.22;;;;;;;9.34;100.00;101455.63;4973702;28;96821;-30
2023/10/23 03:29:03;;;;;;;3.20;2.20;;;;;;;9.37;100.00;101447.38;4972013;28;100918;-27
2023/10/23 03:31:28;;;;;;;4.35;2.65;;;;;;;9.41;100.00;101445.41;4973195;28;99195;-28
2023/10/23 03:33:53;;;;;;;3.20;2.05;;;;;;;9.46;100.00;101448.75;4973634;28;96633;-28
2023/10/23 03:36:19;;;;;;;4.13;2.50;;;;;;;9.52;100.00;101453.88;4973399;28;96842;-28
2023/10/23 03:38:44;;;;;;;3.90;2.45;;;;;;;9.57;100.00;101465.34;4973458;28;97950;-28
2023/10/23 03:41:09;;;;;;;5.05;2.58;;;;;;;9.61;100.00;101466.09;4973769;28;98111;-27
2023/10/23 03:43:35;;;;;;;4.13;2.70;;;;;;;9.63;100.00;101458.75;4973286;28;96635;-28
2023/10/23 03:46:03;;;;;;;6.28;3.33;;;;;;;9.62;100.00;101447.06;4972459;28;97018;-27
2023/10/23 03:48:29;;;;;;;5.03;3.05;;;;;;;9.68;100.00;101457.63;4972869;28;97935;-28
2023/10/23 03:50:58;;;;;;;3.97;3.03;;;;;;;9.74;100.00;101453.72;4973318;28;97837;-28
2023/10/23 03:53:24;;;;;;;5.18;3.40;;;;;;;9.75;100.00;101461.78;4973157;28;96624;-28
2023/10/23 03:55:49;;;;;;;5.32;3.60;;;;;;;9.78;100.00;101460.75;4973493;28;96804;-28
2023/10/23 03:58:14;;;;;;;6.13;3.95;;;;;;;9.77;100.00;101456.28;4973171;28;97984;-28
2023/10/23 04:00:40;;;;;;;6.60;4.10;;;;;;;9.79;100.00;101449.84;4973203;28;97813;-29
2023/10/23 04:03:05;;;;;;;7.00;3.95;;;;;;;9.86;100.00;101457.66;4973293;28;96564;-28
2023/10/23 04:05:30;;;;;;;5.80;3.78;;;;;;;9.82;100.00;101446.13;4973334;28;96881;-28
2023/10/23 04:07:55;;;;;;;4.95;3.45;;;;;;;9.87;100.00;101454.03;4972924;28;100897;-28
2023/10/23 04:10:21;;;;;;;5.65;3.65;;;;;;;9.90;100.00;101443.03;4972841;28;98371;-28
2023/10/23 04:12:46;;;;;;;9.73;4.22;;;;;;;9.92;100.00;101449.25;4972407;28;96515;-28
2023/10/23 04:15:12;;;;;;;6.32;4.20;;;;;;;9.98;100.00;101466.06;4972730;28;96856;-28
2023/10/23 04:17:37;;;;;;;7.60;4.05;;;;;;;9.97;100.00;101450.78;4972914;28;97434;-28
2023/10/23 04:20:03;;;;;;;7.95;3.90;;;;;;;10.02;100.00;101458.66;4972916;28;97285;-28
2023/10/23 04:22:28;;;;;;;6.70;3.85;;;;;;;10.03;100.00;101451.41;4971380;28;96623;-28
2023/10/23 04:24:54;;;;;;;8.45;5.07;;;;;;;10.05;100.00;101450.38;4972658;28;101082;-28
2023/10/23 04:27:20;;;;;;;9.45;5.22;;;;;;;10.08;100.00;101452.97;4972817;28;97987;-29
2023/10/23 04:29:46;;;;;;;10.15;4.85;;;;;;;10.08;100.00;101455.69;4971336;28;101278;-28
2023/10/23 04:32:11;;;;;;;11.32;5.43;;;;;;;10.09;100.00;101457.41;4972801;28;96522;-28
2023/10/23 04:34:36;;;;;;;10.23;5.32;;;;;;;10.10;100.00;101458.28;4972568;28;100552;-28
2023/10/23 04:37:03;;;;;;;9.00;4.70;;;;;;;10.07;100.00;101453.03;4972112;28;98533;-27
2023/10/23 04:39:28;;;;;;;9.68;5.05;;;;;;;10.05;100.00;101447.69;4971093;28;101100;-28
2023/10/23 04:41:53;;;;;;;10.45;5.18;;;;;;;10.11;100.00;101460.06;4972760;28;96661;-28
2023/10/23 04:44:19;;;;;;;10.70;5.90;;;;;;;10.12;100.00;101449.13;4972370;28;96886;-28
2023/10/23 04:46:45;;;;;;;7.57;4.63;;;;;;;10.17;100.00;101455.19;4972106;28;97950;-28
2023/10/23 04:49:11;;;;;;;8.77;4.25;;;;;;;10.14;100.00;101452.63;4972254;28;99099;-28
2023/10/23 04:51:37;;;;;;;7.82;4.68;;;;;;;10.15;100.00;101449.00;4972592;28;96908;-28
2023/10/23 04:54:02;;;;;;;10.73;5.50;;;;;;;10.13;100.00;101448.19;4972635;28;96774;-28
2023/10/23 04:56:27;;;;;;;9.65;5.10;;;;;;;10.19;100.00;101455.13;4971720;28;97494;-27
2023/10/23 04:58:53;;;;;;;11.15;5.45;;;;;;;10.18;100.00;101456.97;4972309;28;97737;-28
2023/10/23 05:01:18;;;;;;;8.02;4.57;;;;;;;10.19;100.00;101458.69;4971919;28;96801;-27
2023/10/23 05:03:44;;;;;;;8.02;4.10;;;;;;;10.20;100.00;101454.16;4972537;28;96813;-28
2023/10/23 05:06:09;;;;;;;8.90;4.80;;;;;;;10.19;100.00;101449.72;4972040;28;99349;-29
2023/10/23 05:08:34;;;;;;;9.40;4.85;;;;;;;10.23;100.00;101456.72;4972231;28;97766;-27
2023/10/23 05:11:10;;;;;;;8.82;4.72;;;;;;;10.20;100.00;101456.84;4972365;28;96614;-28
2023/10/23 05:13:35;;;;;;;7.97;4.13;;;;;;;10.20;100.00;101456.84;4972041;28;96853;-28
2023/10/23 05:16:04;;;;;;;8.68;4.78;;;;;;;10.19;100.00;101447.00;4972138;28;97778;-28
2023/10/23 05:18:33;;;;;;;8.75;4.72;;;;;;;10.23;100.00;101454.03;4970987;28;100965;-29
2023/10/23 05:21:09;;;;;;;10.63;6.00;;;;;;;10.19;100.00;101441.59;4972015;28;97005;-27
2023/10/23 05:23:35;;;;;;;10.18;4.88;;;;;;;10.23;100.00;101454.03;4972022;28;96712;-29
2023/10/23 05:26:01;;;;;;;9.70;5.43;;;;;;;10.23;100.00;101450.44;4971438;28;98007;-27
2023/10/23 05:28:26;;;;;;;7.43;4.60;;;;;;;10.28;100.00;101445.66;4972049;28;97927;-28
2023/10/23 05:30:52;;;;;;;9.02;4.75;;;;;;;10.29;100.00;101452.84;4972156;28;96811;-28
2023/10/23 05:33:17;;;;;;;8.23;5.20;;;;;;;10.28;100.00;101445.66;4971924;28;96809;-28
2023/10/23 05:35:43;;;;;;;8.43;5.30;;;;;;;10.27;100.00;101443.91;4971968;28;97996;-29
2023/10/23 05:38:08;;;;;;;10.10;5.47;;;;;;;10.29;100.00;101447.44;4972021;28;97984;-28
2023/10/23 05:40:34;;;;;;;8.57;4.82;;;;;;;10.27;100.00;101452.03;4971664;28;96666;-28
2023/10/23 05:42:59;;;;;;;9.57;5.22;;;;;;;10.30;100.00;101450.09;4972058;28;96802;-27
2023/10/23 05:45:24;;;;;;;10.32;5.40;;;;;;;10.34;100.00;101450.78;4971678;28;97380;-27
2023/10/23 05:47:50;;;;;;;11.90;6.07;;;;;;;10.31;100.00;101445.53;4971794;28;97789;-27
2023/10/23 05:50:15;;;;;;;10.18;6.03;;;;;;;10.32;100.00;101450.88;4971311;28;96842;-27
2023/10/23 05:52:40;;;;;;;9.63;4.93;;;;;;;10.29;100.00;101456.44;4972008;28;97005;-28
2023/10/23 05:55:08;;;;;;;12.18;5.90;;;;;;;10.29;100.00;101447.44;4971340;28;97473;-28
2023/10/23 05:57:34;;;;;;;11.85;5.63;;;;;;;10.33;100.00;101455.34;4971863;28;97423;-28
2023/10/23 05:59:59;;;;;;;8.50;5.30;;;;;;;10.30;100.00;101447.38;4971937;28;96803;-28
2023/10/23 06:02:25;;;;;;;9.52;5.57;;;;;;;10.33;100.00;101454.47;4971479;28;96970;-28
2023/10/23 06:04:50;;;;;;;9.45;5.40;;;;;;;10.33;100.00;101462.59;4971463;28;99343;-28
2023/10/23 06:07:15;;;;;;;10.43;5.93;;;;;;;10.28;100.00;101462.81;4974176;28;97967;-28
2023/10/23 06:09:41;;;;;;;12.85;5.85;;;;;;;10.34;100.00;101469.75;4974666;28;97674;-27
2023/10/23 06:12:06;;;;;;;10.68;6.07;;;;;;;10.31;100.00;101465.34;4974814;28;96789;-28
2023/10/23 06:14:32;;;;;;;10.43;5.55;;;;;;;10.35;100.00;101471.50;4974291;28;97878;-28
2023/10/23 06:16:57;;;;;;;10.27;5.72;;;;;;;10.32;100.00;101460.81;4974918;28;97276;-28
2023/10/23 06:19:22;;;;;;;9.85;6.05;;;;;;;10.34;100.00;101467.91;4975001;28;97064;-27
2023/10/23 06:21:48;;;;;;;11.88;5.57;;;;;;;10.35;100.00;101455.25;4974717;28;96895;-28
2023/10/23 06:24:15;;;;;;;8.38;5.50;;;;;;;10.32;100.00;101458.09;4974487;28;97457;-27
2023/10/23 06:26:40;;;;;;;9.00;4.90;;;;;;;10.37;100.00;101469.59;4974641;28;97914;-28
2023/10/23 06:29:05;;;;;;;10.63;5.53;;;;;;;10.38;100.00;101465.94;4974487;28;96529;-28
2023/10/23 06:31:31;;;;;;;10.60;5.47;;;;;;;10.40;100.00;101466.72;4973731;28;96823;-28
2023/10/23 06:33:56;;;;;;;8.63;5.30;;;;;;;10.33;100.00;101457.16;4974073;28;99778;-28
2023/10/23 06:36:22;;;;;;;12.82;6.63;;;;;;;10.38;100.00;101465.94;4974411;28;97788;-28
2023/10/23 06:38:47;;;;;;;14.20;6.20;;;;;;;10.41;100.00;101455.81;4973970;28;96682;-28
2023/10/23 06:41:13;;;;;;;10.98;4.85;;;;;;;10.43;100.00;101460.28;4974229;28;96962;-28
2023/10/23 06:43:39;;;;;;;11.20;5.35;;;;;;;10.42;100.00;101462.13;4973866;28;100108;-28
2023/10/23 06:46:04;;;;;;;16.80;6.38;;;;;;;10.35;100.00;101458.84;4974065;28;98257;-28
2023/10/23 06:48:30;;;;;;;10.63;5.18;;;;;;;10.43;100.00;101461.16;4974535;28;96541;-28
2023/10/23 06:50:56;;;;;;;10.18;5.95;;;;;;;10.44;100.00;101457.50;4974459;28;96835;-28
2023/10/23 06:53:21;;;;;;;11.68;5.43;;;;;;;10.40;100.00;101455.91;4973969;28;98081;-27
2023/10/23 06:55:52;;;;;;;10.55;4.47;;;;;;;10.43;100.00;101469.28;4974588;28;97514;-27
2023/10/23 06:58:21;;;;;;;12.73;5.60;;;;;;;10.46;100.00;101471.81;4974073;28;96494;-28
2023/10/23 07:00:47;;;;;;;9.90;5.63;;;;;;;10.41;100.00;101468.47;4972587;28;96899;-28
2023/10/23 07:03:13;;;;;;;7.82;5.07;;;;;;;10.36;100.00;101465.13;4972130;28;101097;-28
2023/10/23 07:05:40;;;;;;;8.57;4.60;;;;;;;10.34;100.00;101464.31;4972544;28;101312;-28
2023/10/23 07:08:05;;;;;;;8.63;4.85;;;;;;;10.39;100.00;101463.16;4972566;28;96699;-28
2023/10/23 07:10:32;;;;;;;10.43;4.93;;;;;;;10.39;100.00;101456.84;4973719;28;96770;-28
2023/10/23 07:12:58;;;;;;;8.63;5.13;;;;;;;10.40;100.00;101470.31;4972225;28;101103;-27
2023/10/23 07:15:23;;;;;;;9.48;4.95;;;;;;;10.40;100.00;101467.59;4973475;28;98985;-28
2023/10/23 07:17:49;;;;;;;14.48;5.53;;;;;;;10.44;100.00;101465.63;4973423;28;96686;-28
2023/10/23 07:20:17;;;;;;;10.43;4.93;;;;;;;10.46;100.00;101460.13;4974253;28;96801;-27
2023/10/23 07:22:45;;;;;;;8.70;4.63;;;;;;;10.45;100.00;101453.81;4972090;28;101346;-27
2023/10/23 07:25:11;;;;;;;10.13;5.15;;;;;;;10.45;100.00;101455.66;4973514;28;98736;-28
2023/10/23 07:27:36;;;;;;;8.60;4.88;;;;;;;10.45;100.00;101458.38;4971861;28;96530;-28
2023/10/23 07:30:04;;;;;;;7.72;4.45;;;;;;;10.51;100.00;101466.16;4973552;28;96815;-28
2023/10/23 07:32:29;;;;;;;10.50;4.90;;;;;;;10.46;100.00;101454.69;4973320;28;100049;-28
2023/10/23 07:34:55;;;;;;;8.38;4.65;;;;;;;10.52;100.00;101471.53;4973247;28;97756;-29
2023/10/23 07:37:21;;;;;;;6.90;3.70;;;;;;;10.48;100.00;101459.09;4973306;28;96625;-27
2023/10/23 07:39:47;;;;;;;9.43;4.75;;;;;;;10.48;100.00;101471.75;4972212;28;96895;-28
2023/10/23 07:42:14;;;;;;;8.07;4.95;;;;;;;10.46;100.00;101473.66;4973257;28;99631;-28
2023/10/23 07:44:40;;;;;;;8.10;4.70;;;;;;;10.39;100.00;101457.75;4971910;28;100914;-28
2023/10/23 07:47:05;;;;;;;10.27;4.90;;;;;;;10.45;100.00;101458.38;4973222;28;96637;-28
2023/10/23 07:49:31;;;;;;;9.32;4.28;;;;;;;10.48;100.00;101459.09;4973386;28;96818;-29
2023/10/23 07:51:56;;;;;;;7.65;4.40;;;;;;;10.47;100.00;101456.47;4972770;28;97993;-27
2023/10/23 07:54:21;;;;;;;6.63;3.60;;;;;;;10.46;100.00;101449.28;4972951;28;97747;-28
2023/10/23 07:56:47;;;;;;;8.15;4.88;;;;;;;10.46;100.00;101454.69;4973132;28;98569;-27
2023/10/23 07:59:13;;;;;;;8.68;4.80;;;;;;;10.45;100.00;101442.13;4973100;28;96769;-28
2023/10/23 08:01:38;;;;;;;6.45;3.80;;;;;;;10.47;100.00;101446.50;4971799;28;99262;-28
2023/10/23 08:04:04;;;;;;;7.28;4.40;;;;;;;10.49;100.00;101447.31;4973192;28;97799;-28
2023/10/23 08:06:30;;;;;;;9.45;5.22;;;;;;;10.54;100.00;101458.78;4973126;28;96697;-28
2023/10/23 08:08:55;;;;;;;8.75;4.10;;;;;;;10.54;100.00;101460.63;4972448;28;96764;-28
2023/10/23 08:11:21;;;;;;;7.68;4.63;;;;;;;10.50;100.00;101443.63;4972926;28;97645;-27
2023/10/23 08:13:47;;;;;;;6.28;3.88;;;;;;;10.52;100.00;101448.97;4973000;28;97352;-29
2023/10/23 08:16:12;;;;;;;7.60;3.65;;;;;;;10.52;100.00;101444.44;4971167;28;97523;-27
2023/10/23 08:18:38;;;;;;;6.57;4.20;;;;;;;10.59;100.00;101445.00;4973188;28;96786;-27
2023/10/23 08:21:14;;;;;;;7.45;4.45;;;;;;;10.60;100.00;101449.44;4971491;28;100194;-28
2023/10/23 08:23:41;;;;;;;7.07;3.80;;;;;;;10.57;100.00;101442.34;4972678;28;97823;-27
2023/10/23 08:26:07;;;;;;;6.38;3.85;;;;;;;10.60;100.00;101450.31;4971564;28;96585;-28
2023/10/23 08:28:32;;;;;;;8.18;4.53;;;;;;;10.58;100.00;101443.22;4972985;28;96841;-27
2023/10/23 08:30:58;;;;;;;8.32;4.47;;;;;;;10.61;100.00;101453.94;4971353;28;99104;-28
2023/10/23 08:33:23;;;;;;;5.50;3.60;;;;;;;10.56;100.00;101445.16;4973190;28;97318;-27
2023/10/23 08:35:48;;;;;;;6.70;4.32;;;;;;;10.54;100.00;101441.66;4973122;28;96525;-27
2023/10/23 08:38:14;;;;;;;6.03;3.72;;;;;;;10.60;100.00;101449.44;4972640;28;96948;-28
2023/10/23 08:40:39;;;;;;;6.40;3.30;;;;;;;10.59;100.00;101462.13;4972017;28;101325;-28
2023/10/23 08:43:05;;;;;;;8.07;4.35;;;;;;;10.59;100.00;101456.69;4972477;28;98845;-27
2023/10/23 08:45:31;;;;;;;6.18;3.83;;;;;;;10.58;100.00;101454.06;4971169;28;96926;-28
2023/10/23 08:47:57;;;;;;;6.40;3.17;;;;;;;10.58;100.00;101457.69;4972212;28;96853;-28
2023/10/23 08:50:24;;;;;;;6.15;3.50;;;;;;;10.59;100.00;101455.84;4970852;28;101113;-29
2023/10/23 08:52:58;;;;;;;6.13;3.25;;;;;;;10.66;100.00;101462.69;4972246;28;99064;-28
2023/10/23 08:55:28;;;;;;;6.90;3.60;;;;;;;10.64;100.00;101453.75;4972596;28;96498;-29
2023/10/23 08:57:54;;;;;;;5.53;3.38;;;;;;;10.65;100.00;101473.59;4971456;28;96845;-28
2023/10/23 09:00:22;;;;;;;8.15;4.13;;;;;;;10.63;100.00;101463.72;4972011;28;99398;-28
2023/10/23 09:02:48;;;;;;;4.22;2.65;;;;;;;10.55;100.00;101465.94;4970952;28;99052;-28
2023/10/23 09:05:14;;;;;;;6.15;3.33;;;;;;;10.51;100.00;101460.75;4972003;28;96683;-29
2023/10/23 09:07:40;;;;;;;5.70;3.65;;;;;;;10.55;100.00;101470.47;4972397;28;96881;-29
2023/10/23 09:10:05;;;;;;;5.90;3.25;;;;;;;10.49;100.00;101471.69;4970634;28;100739;-28
2023/10/23 09:12:35;;;;;;;8.63;3.90;;;;;;;10.50;100.00;101459.88;4971929;28;99962;-27
2023/10/23 09:15:21;;;;;;;5.13;3.15;;;;;;;10.53;100.00;101466.97;4970851;28;96713;-28
2023/10/23 09:17:49;;;;;;;5.63;2.90;;;;;;;10.40;100.00;101461.31;4971014;28;96790;-28
2023/10/23 09:20:21;;;;;;;6.05;3.53;;;;;;;10.39;100.00;101470.38;4970761;28;101059;-28
2023/10/23 09:22:50;;;;;;;7.22;3.65;;;;;;;10.39;100.00;101465.88;4970972;28;100776;-27
2023/10/23 09:25:17;;;;;;;5.95;3.83;;;;;;;10.35;100.00;101469.69;4970812;28;96627;-29
2023/10/23 09:27:43;;;;;;;12.80;3.88;;;;;;;10.34;100.00;101467.03;4970572;28;96909;-28
2023/10/23 09:30:09;;;;;;;10.68;3.90;;;;;;;10.32;100.00;101453.59;4970035;28;101341;-28
2023/10/23 09:32:37;;;;;;;5.40;3.38;;;;;;;10.31;100.00;101446.41;4970871;28;99061;-29
2023/10/23 09:35:04;;;;;;;10.57;5.38;;;;;;;10.35;100.00;101452.56;4972004;28;96492;-28
2023/10/23 09:37:30;;;;;;;10.18;3.78;;;;;;;10.44;100.00;101465.63;4971889;28;96828;-28
2023/10/23 09:40:08;;;;;;;8.27;4.25;;;;;;;10.44;100.00;101443.06;4971811;28;97930;-28
2023/10/23 09:42:34;;;;;;;11.13;4.75;;;;;;;10.48;100.00;101450.09;4974497;28;98365;-28
2023/10/23 09:45:01;;;;;;;12.00;5.25;;;;;;;10.48;100.00;101448.25;4975283;28;96626;-28
2023/10/23 09:47:28;;;;;;;10.38;4.70;;;;;;;10.50;100.00;101432.78;4973690;28;97742;-28
2023/10/23 09:49:54;;;;;;;8.60;4.47;;;;;;;10.55;100.00;101441.56;4973794;28;100975;-27
2023/10/23 09:52:24;;;;;;;11.88;5.45;;;;;;;10.59;100.00;101440.44;4975096;28;97795;-28
2023/10/23 09:54:50;;;;;;;11.07;5.03;;;;;;;10.57;100.00;101430.66;4972878;28;97217;-28
2023/10/23 09:57:17;;;;;;;10.73;5.50;;;;;;;10.61;100.00;101437.66;4973847;28;97147;-27
2023/10/23 09:59:49;;;;;;;6.63;3.70;;;;;;;10.63;100.00;101433.06;4975011;28;98007;-27
2023/10/23 10:02:17;;;;;;;10.65;5.03;;;;;;;10.66;100.00;101434.72;4973790;28;100980;-28
2023/10/23 10:05:04;;;;;;;9.85;4.88;;;;;;;10.75;100.00;101442.34;4975325;28;96611;-27
2023/10/23 10:07:49;;;;;;;9.15;4.63;;;;;;;10.80;100.00;101445.72;4973769;28;96756;-28
2023/10/23 10:10:16;;;;;;;7.75;4.47;;;;;;;10.83;100.00;101440.13;4974673;28;99507;-27
2023/10/23 10:12:42;;;;;;;11.90;5.13;;;;;;;10.83;100.00;101437.41;4973870;28;101169;-27
2023/10/23 10:15:09;;;;;;;10.27;4.20;;;;;;;10.88;100.00;101432.63;4973527;28;97356;-28
2023/10/23 10:17:36;;;;;;;9.70;4.55;;;;;;;10.92;100.00;101433.34;4973524;28;96787;-29
2023/10/23 10:20:02;;;;;;;9.70;5.25;;;;;;;10.97;100.00;101429.41;4972884;28;101111;-28
2023/10/23 10:22:34;;;;;;;12.50;4.43;;;;;;;11.04;100.00;101424.53;4974490;28;99242;-28
2023/10/23 10:25:00;;;;;;;;;;;;;;;11.11;100.00;101420.53;4975418;28;96714;-28
2023/10/23 10:27:26;;;;;;;9.00;4.05;;;;;;;11.17;100.00;101413.88;4974631;28;96857;-29
2023/10/23 10:29:51;;;;;;;10.68;4.80;;;;;;;11.31;100.00;101421.28;4973057;28;100845;-28
2023/10/23 10:32:17;;;;;;;8.40;5.00;;;;;;;11.38;100.00;101412.69;4973920;28;99409;-27
2023/10/23 10:34:45;;;;;;;8.50;4.38;;;;;;;11.51;100.00;101412.00;4974553;28;97200;-28
2023/10/23 10:37:11;;;;;;;6.47;3.85;;;;;;;11.51;100.00;101407.44;4975269;28;96787;-28
2023/10/23 10:39:50;;;;;;;5.95;3.53;;;;;;;11.61;100.00;101406.00;4972966;28;100998;-28
2023/10/23 10:42:22;;;;;;;7.57;3.78;;;;;;;11.67;100.00;101397.47;4973004;28;100914;-28
2023/10/23 10:45:00;;;;;;;6.65;3.72;;;;;;;11.78;100.00;101393.28;4972098;28;97171;-28
2023/10/23 10:47:41;;;;;;;4.25;3.10;;;;;;;11.92;100.00;101389.78;4968069;28;96901;-28
2023/10/23 10:50:07;;;;;;;6.45;3.22;;;;;;;12.00;100.00;101376.66;4953136;28;97885;-28
2023/10/23 10:52:37;;;;;;;5.97;2.92;;;;;;;12.10;100.00;101372.41;4951453;28;98897;-27
2023/10/23 10:55:08;;;;;;;7.65;3.55;;;;;;;12.22;100.00;101381.66;4969123;28;96858;-28
2023/10/23 10:57:36;;;;;;;5.97;3.08;;;;;;;12.32;100.00;101372.88;4954719;28;96821;-27
2023/10/23 11:00:03;;;;;;;7.03;3.85;;;;;;;12.33;100.00;101363.75;4969381;28;100951;-27
2023/10/23 11:02:28;;;;;;;7.47;3.47;;;;;;;12.33;100.00;101352.91;4969607;28;101341;-28
2023/10/23 11:04:54;;;;;;;6.88;3.33;;;;;;;12.30;100.00;101349.50;4952709;28;97205;-30
2023/10/23 11:07:24;;;;;;;7.10;2.50;;;;;;;12.26;100.00;101343.38;4952124;28;96917;-28
2023/10/23 11:09:50;;;;;;;6.45;3.05;;;;;;;12.34;100.00;101348.31;4950082;28;101313;-29
2023/10/23 11:12:19;;;;;;;11.63;3.10;;;;;;;12.38;100.00;101349.03;4951988;28;98938;-28
2023/10/23 11:14:46;;;;;;;4.47;2.70;;;;;;;12.35;100.00;101343.75;4952018;28;96792;-31
2023/10/23 11:17:12;;;;;;;6.70;3.40;;;;;;;12.31;100.00;101332.22;4950721;28;97134;-28